Time;durP1;ratioP1;P1;durP2;ratioP2;P2;SDS_P1;SDS_P2;PMS_P1;PMS_P2;Temp;Humidity;BMP_temperature;BMP_pressure;BME280_temperature;BME280_humidity;BME280_pressure;Samples;Min_cycle;Max_cycle;Signal;HPM_P1;HPM_P2
2021/05/29 00:02:24;;;;;;;18.70;12.63;;;15.10;99.90;;;;;;5085287;28;20171;-62
2021/05/29 00:04:50;;;;;;;14.40;11.75;;;15.10;99.90;;;;;;5082903;28;20186;-62
2021/05/29 00:07:16;;;;;;;15.70;12.07;;;15.10;99.90;;;;;;5085229;28;20229;-62
2021/05/29 00:09:42;;;;;;;15.85;11.90;;;14.80;99.90;;;;;;5085446;28;20170;-62
2021/05/29 00:12:10;;;;;;;17.60;12.07;;;14.90;99.90;;;;;;5085405;28;20250;-62
2021/05/29 00:14:37;;;;;;;13.25;11.27;;;15.10;99.90;;;;;;5082987;28;20175;-62
2021/05/29 00:17:05;;;;;;;13.65;11.98;;;14.90;99.90;;;;;;5084825;28;20543;-62
2021/05/29 00:19:31;;;;;;;16.20;11.23;;;14.60;99.90;;;;;;5085510;28;20203;-62
2021/05/29 00:21:57;;;;;;;14.20;10.95;;;14.40;99.90;;;;;;5085535;28;20196;-62
2021/05/29 00:24:23;;;;;;;15.00;11.60;;;14.40;99.90;;;;;;5082970;28;20175;-62
2021/05/29 00:26:48;;;;;;;13.48;10.23;;;14.50;99.90;;;;;;5085225;28;20197;-62
2021/05/29 00:29:14;;;;;;;20.85;11.02;;;14.50;99.90;;;;;;5085328;28;20160;-62
2021/05/29 00:31:41;;;;;;;15.38;10.80;;;14.70;99.90;;;;;;5084865;28;20176;-62
2021/05/29 00:34:06;;;;;;;17.40;11.30;;;14.70;99.90;;;;;;5084375;28;20214;-62
2021/05/29 00:36:32;;;;;;;14.32;9.80;;;14.60;99.90;;;;;;5083513;28;20232;-62
2021/05/29 00:38:57;;;;;;;11.90;10.35;;;14.20;99.90;;;;;;5085328;28;20251;-62
2021/05/29 00:41:23;;;;;;;12.70;10.80;;;14.10;99.90;;;;;;5085338;28;20256;-62
2021/05/29 00:43:49;;;;;;;13.52;10.10;;;14.30;99.90;;;;;;5085249;28;20199;-62
2021/05/29 00:46:14;;;;;;;11.95;10.73;;;14.20;99.90;;;;;;5084365;28;20168;-62
2021/05/29 00:48:41;;;;;;;13.05;10.50;;;14.20;99.90;;;;;;5088809;28;20171;-62
2021/05/29 00:51:08;;;;;;;15.60;10.20;;;14.60;99.90;;;;;;5088395;28;20156;-62
2021/05/29 00:53:35;;;;;;;14.38;10.68;;;14.20;99.90;;;;;;5088780;28;20179;-62
2021/05/29 00:56:04;;;;;;;14.98;11.27;;;14.20;99.90;;;;;;5085958;28;20160;-62
2021/05/29 00:58:31;;;;;;;14.15;10.68;;;14.60;99.90;;;;;;5087295;28;20179;-62
2021/05/29 01:00:57;;;;;;;14.75;9.93;;;14.70;99.90;;;;;;5088545;28;20184;-62
2021/05/29 01:03:23;;;;;;;11.93;10.50;;;14.50;99.90;;;;;;5087316;28;20164;-62
2021/05/29 01:05:49;;;;;;;14.32;10.18;;;14.40;99.90;;;;;;5086011;28;20156;-62
2021/05/29 01:08:15;;;;;;;17.42;11.18;;;14.40;99.90;;;;;;5088535;28;20211;-62
2021/05/29 01:10:41;;;;;;;14.77;10.93;;;14.20;99.90;;;;;;5088608;28;20156;-62
2021/05/29 01:13:10;;;;;;;11.95;9.38;;;14.40;99.90;;;;;;5088322;28;20167;-62
2021/05/29 01:15:43;;;;;;;11.27;9.70;;;14.20;99.90;;;;;;5085575;28;20168;-62
2021/05/29 01:18:17;;;;;;;15.95;10.30;;;14.10;99.90;;;;;;5088253;28;20184;-62
2021/05/29 01:20:45;;;;;;;17.17;10.88;;;14.10;99.90;;;;;;5088586;28;20210;-62
2021/05/29 01:23:11;;;;;;;13.48;9.98;;;14.30;99.90;;;;;;5088162;28;20527;-62
2021/05/29 01:25:44;;;;;;;10.95;9.77;;;14.40;99.90;;;;;;5085804;28;20191;-62
2021/05/29 01:28:14;;;;;;;15.50;11.00;;;14.30;99.90;;;;;;5088035;28;20168;-62
2021/05/29 01:30:47;;;;;;;18.90;11.13;;;14.30;99.90;;;;;;5087968;28;20216;-62
2021/05/29 01:33:15;;;;;;;14.90;11.55;;;14.30;99.90;;;;;;5088117;28;20172;-62
2021/05/29 01:35:43;;;;;;;17.75;12.10;;;14.40;99.90;;;;;;5085198;28;20226;-62
2021/05/29 01:38:10;;;;;;;15.50;11.63;;;14.40;99.90;;;;;;5087824;28;20164;-62
2021/05/29 01:40:36;;;;;;;17.23;11.98;;;14.40;99.90;;;;;;5087901;28;20203;-62
2021/05/29 01:43:03;;;;;;;22.20;12.13;;;14.30;99.90;;;;;;5087817;28;20289;-63
2021/05/29 01:45:29;;;;;;;14.48;11.77;;;14.30;99.90;;;;;;5085033;28;20174;-62
2021/05/29 01:47:55;;;;;;;20.65;13.15;;;14.40;99.90;;;;;;5086508;28;20175;-62
2021/05/29 01:50:22;;;;;;;12.90;11.20;;;14.40;99.90;;;;;;5087871;28;20168;-62
2021/05/29 01:52:57;;;;;;;20.38;12.63;;;14.50;99.90;;;;;;5087838;28;20192;-62
2021/05/29 01:55:26;;;;;;;14.48;11.90;;;14.40;99.90;;;;;;5084918;28;20159;-62
2021/05/29 01:57:52;;;;;;;17.17;13.23;;;14.50;99.90;;;;;;5087195;28;20722;-61
2021/05/29 02:00:20;;;;;;;22.45;12.43;;;14.60;99.90;;;;;;5087179;28;20206;-62
2021/05/29 02:02:46;;;;;;;13.25;11.55;;;14.60;99.90;;;;;;5087720;28;20196;-62
2021/05/29 02:05:14;;;;;;;13.40;12.00;;;14.50;99.90;;;;;;5084707;28;20164;-62
2021/05/29 02:07:40;;;;;;;18.75;11.90;;;14.50;99.90;;;;;;5087221;28;20168;-62
2021/05/29 02:10:08;;;;;;;15.88;12.23;;;14.60;99.90;;;;;;5087313;28;20161;-62
2021/05/29 02:12:42;;;;;;;19.40;11.95;;;14.60;99.90;;;;;;5085936;28;20532;-62
2021/05/29 02:15:10;;;;;;;15.52;12.00;;;14.60;99.90;;;;;;5084270;28;20168;-61
2021/05/29 02:17:36;;;;;;;17.88;12.52;;;14.60;99.90;;;;;;5086966;28;20172;-62
2021/05/29 02:20:03;;;;;;;16.33;12.98;;;14.60;99.90;;;;;;5086479;28;20474;-62
2021/05/29 02:22:29;;;;;;;15.80;11.80;;;14.70;99.90;;;;;;5087194;28;20175;-62
2021/05/29 02:24:54;;;;;;;15.93;12.13;;;14.60;99.90;;;;;;5084750;28;20164;-62
2021/05/29 02:27:20;;;;;;;15.98;10.90;;;14.50;99.90;;;;;;5085570;28;20186;-61
2021/05/29 02:29:45;;;;;;;13.05;10.75;;;14.50;99.90;;;;;;5087126;28;20168;-61
2021/05/29 02:32:11;;;;;;;10.77;9.70;;;14.40;99.90;;;;;;5086424;28;20176;-62
2021/05/29 02:34:37;;;;;;;11.23;9.25;;;14.20;99.90;;;;;;5084022;28;20226;-62
2021/05/29 02:37:02;;;;;;;15.50;9.82;;;14.10;99.90;;;;;;5086596;28;20164;-61
2021/05/29 02:39:28;;;;;;;10.75;8.95;;;14.00;99.90;;;;;;5086945;28;20187;-61
2021/05/29 02:41:54;;;;;;;12.82;9.52;;;13.90;99.90;;;;;;5086711;28;20157;-62
2021/05/29 02:44:19;;;;;;;11.80;9.90;;;13.80;99.90;;;;;;5084463;28;20576;-62
2021/05/29 02:46:45;;;;;;;10.57;9.48;;;13.70;99.90;;;;;;5085935;28;20156;-63
2021/05/29 02:49:11;;;;;;;14.65;10.10;;;13.70;99.90;;;;;;5086610;28;20221;-61
2021/05/29 02:51:36;;;;;;;11.60;9.93;;;13.70;99.90;;;;;;5086624;28;20200;-61
2021/05/29 02:54:02;;;;;;;11.32;10.10;;;13.60;99.90;;;;;;5086256;28;20243;-62
2021/05/29 02:56:27;;;;;;;15.13;10.65;;;13.60;99.90;;;;;;5084105;28;20235;-60
2021/05/29 02:58:53;;;;;;;13.52;9.02;;;13.60;99.90;;;;;;5086465;28;20194;-62
2021/05/29 03:01:19;;;;;;;11.23;9.65;;;13.50;99.90;;;;;;5086109;28;20164;-62
2021/05/29 03:03:44;;;;;;;12.98;9.88;;;13.40;99.90;;;;;;5085403;28;20209;-61
2021/05/29 03:06:10;;;;;;;16.48;10.80;;;13.30;99.90;;;;;;5083582;28;20152;-61
2021/05/29 03:08:35;;;;;;;11.07;9.68;;;13.30;99.90;;;;;;5085493;28;20175;-62
2021/05/29 03:11:01;;;;;;;11.35;9.63;;;13.20;99.90;;;;;;5084836;28;20164;-60
2021/05/29 03:13:27;;;;;;;13.32;9.25;;;13.20;99.90;;;;;;5086429;28;20160;-60
2021/05/29 03:15:53;;;;;;;10.48;9.07;;;13.20;99.90;;;;;;5081938;28;20168;-62
2021/05/29 03:18:18;;;;;;;17.65;9.65;;;13.20;99.90;;;;;;5085862;28;20229;-63
2021/05/29 03:20:44;;;;;;;14.70;10.02;;;13.20;99.90;;;;;;5086079;28;20187;-60
2021/05/29 03:23:10;;;;;;;11.13;9.73;;;13.20;99.90;;;;;;5085937;28;20233;-61
2021/05/29 03:25:36;;;;;;;14.15;9.20;;;13.20;99.90;;;;;;5083517;28;20644;-60
2021/05/29 03:28:02;;;;;;;12.27;8.70;;;13.10;99.90;;;;;;5085829;28;20198;-61
2021/05/29 03:30:29;;;;;;;15.32;9.52;;;13.10;99.90;;;;;;5085819;28;20175;-60
2021/05/29 03:32:56;;;;;;;10.85;9.75;;;13.10;99.90;;;;;;5084722;28;20171;-61
2021/05/29 03:35:22;;;;;;;10.35;9.40;;;13.00;99.90;;;;;;5083034;28;20215;-62
2021/05/29 03:37:48;;;;;;;12.40;9.85;;;13.00;99.90;;;;;;5085781;28;20180;-62
2021/05/29 03:40:16;;;;;;;12.15;9.35;;;13.10;99.90;;;;;;5085791;28;20692;-61
2021/05/29 03:42:42;;;;;;;9.57;8.68;;;13.00;99.90;;;;;;5085945;28;20164;-60
2021/05/29 03:45:12;;;;;;;12.60;8.98;;;13.00;99.90;;;;;;5082847;28;20220;-61
2021/05/29 03:47:37;;;;;;;10.60;9.50;;;13.00;99.90;;;;;;5085583;28;20171;-61
2021/05/29 03:50:04;;;;;;;11.68;9.15;;;13.00;99.90;;;;;;5085581;28;20168;-61
2021/05/29 03:52:29;;;;;;;12.35;9.32;;;12.90;99.90;;;;;;5084636;28;20170;-61
2021/05/29 03:54:55;;;;;;;14.13;9.88;;;13.00;99.90;;;;;;5083241;28;20164;-61
2021/05/29 03:57:20;;;;;;;10.95;9.82;;;13.00;99.90;;;;;;5085541;28;20175;-61
2021/05/29 03:59:46;;;;;;;12.10;10.25;;;13.00;99.90;;;;;;5085676;28;20212;-60
2021/05/29 04:02:12;;;;;;;17.40;10.30;;;13.00;99.90;;;;;;5085103;28;20172;-61
2021/05/29 04:04:37;;;;;;;11.43;10.07;;;12.90;99.90;;;;;;5083163;28;20160;-61
2021/05/29 04:07:03;;;;;;;11.77;10.13;;;12.90;99.90;;;;;;5085288;28;20205;-61
2021/05/29 04:09:29;;;;;;;12.40;9.98;;;12.80;99.90;;;;;;5085511;28;20163;-61
2021/05/29 04:11:55;;;;;;;13.40;10.68;;;12.80;99.90;;;;;;5085400;28;20168;-61
2021/05/29 04:14:21;;;;;;;13.40;10.57;;;12.80;99.90;;;;;;5083092;28;20615;-61
2021/05/29 04:16:46;;;;;;;12.88;10.57;;;12.90;99.90;;;;;;5084643;28;20183;-61
2021/05/29 04:19:12;;;;;;;11.23;10.13;;;12.90;99.90;;;;;;5086267;28;20176;-61
2021/05/29 04:21:38;;;;;;;12.57;10.00;;;12.90;99.90;;;;;;5089435;28;20524;-61
2021/05/29 04:24:04;;;;;;;12.00;10.40;;;12.90;99.90;;;;;;5088928;28;20164;-61
2021/05/29 04:26:29;;;;;;;13.77;10.40;;;12.90;99.90;;;;;;5087174;28;20156;-61
2021/05/29 04:28:55;;;;;;;17.92;10.07;;;12.90;99.90;;;;;;5089370;28;20152;-61
2021/05/29 04:31:21;;;;;;;17.02;11.68;;;12.90;99.90;;;;;;5088954;28;20178;-61
2021/05/29 04:33:46;;;;;;;15.27;11.18;;;12.90;99.90;;;;;;5089161;28;20171;-61
2021/05/29 04:36:12;;;;;;;12.90;11.32;;;13.00;99.90;;;;;;5086420;28;20179;-61
2021/05/29 04:38:38;;;;;;;11.52;10.35;;;13.00;99.90;;;;;;5088962;28;20172;-61
2021/05/29 04:41:03;;;;;;;24.85;11.43;;;13.00;99.90;;;;;;5088860;28;20168;-61
2021/05/29 04:43:29;;;;;;;21.10;11.55;;;13.00;99.90;;;;;;5089179;28;20182;-61
2021/05/29 04:45:55;;;;;;;13.07;10.35;;;13.00;99.90;;;;;;5086159;28;20168;-61
2021/05/29 04:48:20;;;;;;;11.93;10.80;;;13.00;99.90;;;;;;5088708;28;20172;-61
2021/05/29 04:53:30;;;;;;;14.30;10.55;;;13.00;99.90;;;;;;5088915;28;20652;-61
2021/05/29 04:55:59;;;;;;;15.55;10.98;;;13.00;99.90;;;;;;5086268;28;20156;-61
2021/05/29 04:58:24;;;;;;;17.35;11.43;;;13.10;99.90;;;;;;5088650;28;20160;-61
2021/05/29 05:00:50;;;;;;;16.92;11.65;;;13.10;99.90;;;;;;5088357;28;20194;-61
2021/05/29 05:03:16;;;;;;;13.98;12.02;;;13.20;99.90;;;;;;5088565;28;20578;-61
2021/05/29 05:05:42;;;;;;;14.00;11.88;;;13.30;99.90;;;;;;5085874;28;20254;-61
2021/05/29 05:08:07;;;;;;;15.23;11.30;;;13.40;99.90;;;;;;5088273;28;20549;-62
2021/05/29 05:10:33;;;;;;;17.75;11.95;;;13.40;99.90;;;;;;5088681;28;20183;-62
2021/05/29 05:12:59;;;;;;;16.20;11.13;;;13.50;99.90;;;;;;5088396;28;20167;-61
2021/05/29 05:15:25;;;;;;;12.27;11.05;;;13.50;99.90;;;;;;5085546;28;20161;-61
2021/05/29 05:17:51;;;;;;;17.40;11.35;;;13.50;99.90;;;;;;5088183;28;20237;-61
2021/05/29 05:20:17;;;;;;;17.67;11.35;;;13.50;99.90;;;;;;5088184;28;20598;-62
2021/05/29 05:22:44;;;;;;;15.93;11.63;;;13.50;99.90;;;;;;5088395;28;20171;-62
2021/05/29 05:25:11;;;;;;;22.48;11.45;;;13.60;99.90;;;;;;5085528;28;20156;-62
2021/05/29 05:27:36;;;;;;;16.63;12.07;;;13.70;99.90;;;;;;5086566;28;20172;-62
2021/05/29 05:30:05;;;;;;;16.00;11.95;;;13.80;99.90;;;;;;5088087;28;20156;-62
2021/05/29 05:32:31;;;;;;;17.02;11.93;;;13.80;99.90;;;;;;5087021;28;20164;-61
2021/05/29 05:34:56;;;;;;;16.63;12.07;;;13.90;99.90;;;;;;5083914;28;20211;-62
2021/05/29 05:37:22;;;;;;;20.73;12.35;;;14.00;99.90;;;;;;5087644;28;20191;-61
2021/05/29 05:39:47;;;;;;;14.13;11.93;;;14.10;99.90;;;;;;5087945;28;20200;-62
2021/05/29 05:42:13;;;;;;;18.10;12.13;;;14.10;99.90;;;;;;5087770;28;20168;-62
2021/05/29 05:44:39;;;;;;;19.20;12.38;;;14.00;99.90;;;;;;5085305;28;20159;-62
2021/05/29 05:47:04;;;;;;;13.07;11.77;;;14.10;99.90;;;;;;5087303;28;20778;-62
2021/05/29 05:49:30;;;;;;;17.67;12.43;;;14.20;99.90;;;;;;5087723;28;20164;-62
2021/05/29 05:51:55;;;;;;;19.15;11.55;;;14.20;99.90;;;;;;5088064;28;20296;-61
2021/05/29 05:54:21;;;;;;;18.20;12.60;;;14.30;99.90;;;;;;5085317;28;20164;-62
2021/05/29 05:56:47;;;;;;;14.80;12.27;;;14.40;99.90;;;;;;5087327;28;20505;-62
2021/05/29 05:59:12;;;;;;;12.77;11.35;;;14.40;99.90;;;;;;5087395;28;20187;-61
2021/05/29 06:01:38;;;;;;;15.65;12.07;;;14.40;99.90;;;;;;5087210;28;20168;-62
2021/05/29 06:04:04;;;;;;;19.98;12.73;;;14.60;99.90;;;;;;5087274;28;20224;-62
2021/05/29 06:06:30;;;;;;;20.55;12.18;;;14.60;99.90;;;;;;5085499;28;20164;-62
2021/05/29 06:08:56;;;;;;;14.60;11.38;;;14.70;99.90;;;;;;5087248;28;20251;-62
2021/05/29 06:11:23;;;;;;;13.73;11.70;;;14.80;99.90;;;;;;5087143;28;20645;-62
2021/05/29 06:21:45;;;;;;;14.15;11.95;;;15.10;99.90;;;;;;5087240;28;20225;-62
2021/05/29 06:24:13;;;;;;;17.02;12.30;;;15.20;99.90;;;;;;5085872;28;20160;-62
2021/05/29 06:26:39;;;;;;;15.35;12.02;;;15.20;99.90;;;;;;5085922;28;20571;-62
2021/05/29 06:29:05;;;;;;;16.40;12.15;;;15.20;99.90;;;;;;5086662;28;20171;-62
2021/05/29 06:31:31;;;;;;;15.63;11.73;;;15.30;99.90;;;;;;5086765;28;20172;-62
2021/05/29 06:33:56;;;;;;;13.15;11.77;;;15.40;99.90;;;;;;5086801;28;20171;-62
2021/05/29 06:36:22;;;;;;;15.95;11.55;;;15.50;99.90;;;;;;5083852;28;20251;-62
2021/05/29 06:38:48;;;;;;;12.10;10.98;;;15.70;99.90;;;;;;5085361;28;20180;-62
2021/05/29 06:41:13;;;;;;;16.92;12.00;;;15.70;99.90;;;;;;5086043;28;20243;-61
2021/05/29 06:43:39;;;;;;;13.98;11.32;;;15.80;99.90;;;;;;5085305;28;20152;-62
2021/05/29 06:46:05;;;;;;;18.75;11.25;;;15.80;99.90;;;;;;5083661;28;20214;-62
2021/05/29 06:48:30;;;;;;;17.17;11.77;;;15.90;99.90;;;;;;5086457;28;20168;-62
2021/05/29 06:50:57;;;;;;;11.50;10.35;;;16.00;99.90;;;;;;5085171;28;20213;-62
2021/05/29 06:53:28;;;;;;;20.77;11.40;;;16.10;99.90;;;;;;5086235;28;20242;-62
2021/05/29 06:58:49;;;;;;;12.15;10.52;;;16.20;99.90;;;;;;5086186;28;20308;-62
2021/05/29 07:01:16;;;;;;;14.77;11.70;;;16.30;99.90;;;;;;5085889;28;20242;-61
2021/05/29 07:03:41;;;;;;;12.68;10.68;;;16.40;99.90;;;;;;5085110;28;20168;-62
2021/05/29 07:06:07;;;;;;;15.57;10.80;;;16.40;99.90;;;;;;5083581;28;20160;-62
2021/05/29 07:08:33;;;;;;;19.63;12.20;;;16.50;99.90;;;;;;5086093;28;20626;-62
2021/05/29 07:10:59;;;;;;;12.98;11.38;;;16.60;99.90;;;;;;5086273;28;20218;-62
2021/05/29 07:13:24;;;;;;;15.18;10.30;;;16.60;99.90;;;;;;5085929;28;20170;-62
2021/05/29 07:15:50;;;;;;;13.60;10.07;;;16.70;99.90;;;;;;5083088;28;20188;-62
2021/05/29 07:18:16;;;;;;;12.02;10.85;;;16.80;99.90;;;;;;5085310;28;20218;-62
2021/05/29 07:20:43;;;;;;;11.18;9.95;;;16.80;99.90;;;;;;5085621;28;20692;-62
2021/05/29 07:23:09;;;;;;;17.08;11.25;;;16.90;99.90;;;;;;5085484;28;20160;-62
2021/05/29 07:25:36;;;;;;;11.13;10.00;;;16.90;99.90;;;;;;5083202;28;20175;-62
2021/05/29 07:28:02;;;;;;;13.75;9.52;;;17.00;99.90;;;;;;5085536;28;20168;-62
2021/05/29 07:30:28;;;;;;;12.63;10.38;;;17.10;99.90;;;;;;5085809;28;20195;-62
2021/05/29 07:32:54;;;;;;;15.75;11.15;;;17.20;99.90;;;;;;5085703;28;20181;-62
2021/05/29 07:35:21;;;;;;;12.18;10.48;;;17.20;99.90;;;;;;5082883;28;20215;-62
2021/05/29 07:37:46;;;;;;;11.57;10.45;;;17.30;99.90;;;;;;5085789;28;20192;-62
2021/05/29 07:40:13;;;;;;;11.10;9.93;;;17.30;99.90;;;;;;5085648;28;20252;-61
2021/05/29 07:42:40;;;;;;;14.18;9.45;;;17.40;99.90;;;;;;5084386;28;20163;-61
2021/05/29 07:45:07;;;;;;;13.13;9.95;;;17.50;99.90;;;;;;5082948;28;20160;-61
2021/05/29 07:47:33;;;;;;;14.32;9.63;;;17.60;99.90;;;;;;5085161;28;20172;-61
2021/05/29 07:49:59;;;;;;;11.73;9.25;;;17.70;99.90;;;;;;5085881;28;20184;-61
2021/05/29 07:52:24;;;;;;;11.30;9.55;;;17.80;99.90;;;;;;5085621;28;20225;-61
2021/05/29 07:54:50;;;;;;;10.95;9.80;;;17.90;99.90;;;;;;5082616;28;20224;-61
2021/05/29 07:57:16;;;;;;;11.57;9.38;;;18.00;99.90;;;;;;5083732;28;20194;-61
2021/05/29 07:59:42;;;;;;;11.35;9.70;;;18.10;99.90;;;;;;5085338;28;20188;-61
2021/05/29 08:02:09;;;;;;;10.90;9.73;;;18.20;99.90;;;;;;5083797;28;20560;-65
2021/05/29 08:04:35;;;;;;;10.95;9.10;;;18.30;99.90;;;;;;5082705;28;20192;-62
2021/05/29 08:07:01;;;;;;;9.68;8.70;;;18.40;99.90;;;;;;5084668;28;20160;-62
2021/05/29 08:09:27;;;;;;;11.02;8.95;;;18.40;99.90;;;;;;5085374;28;20218;-62
2021/05/29 08:11:53;;;;;;;16.10;8.52;;;18.30;99.90;;;;;;5085425;28;20163;-61
2021/05/29 08:14:19;;;;;;;12.25;8.07;;;18.30;99.90;;;;;;5083091;28;20193;-62
2021/05/29 08:16:44;;;;;;;9.68;8.50;;;18.30;99.90;;;;;;5084907;28;20167;-62
2021/05/29 08:19:13;;;;;;;11.10;7.97;;;18.40;99.90;;;;;;5083548;28;20183;-61
2021/05/29 08:21:41;;;;;;;9.40;7.45;;;18.50;99.90;;;;;;5085431;28;20156;-61
2021/05/29 08:24:07;;;;;;;12.23;7.47;;;18.60;99.90;;;;;;5084435;28;20158;-61
2021/05/29 08:26:35;;;;;;;11.13;8.20;;;18.70;99.90;;;;;;5082207;28;20160;-61
2021/05/29 08:29:02;;;;;;;10.00;8.77;;;18.80;99.90;;;;;;5084825;28;20247;-60
2021/05/29 08:31:28;;;;;;;11.55;8.93;;;18.90;99.90;;;;;;5083908;28;20168;-61
2021/05/29 08:33:54;;;;;;;13.00;8.50;;;19.00;99.90;;;;;;5085162;28;20157;-61
2021/05/29 08:36:19;;;;;;;9.50;8.00;;;19.20;99.90;;;;;;5082139;28;20156;-61
2021/05/29 08:38:45;;;;;;;14.05;7.05;;;19.20;99.90;;;;;;5085036;28;20180;-62
2021/05/29 08:41:11;;;;;;;13.50;7.18;;;19.30;99.90;;;;;;5083624;28;20161;-62
2021/05/29 08:43:37;;;;;;;8.65;7.55;;;19.30;99.90;;;;;;5084985;28;20164;-62
2021/05/29 08:46:03;;;;;;;6.90;6.20;;;19.40;99.90;;;;;;5081973;28;20175;-62
2021/05/29 08:48:29;;;;;;;10.82;7.35;;;19.50;99.90;;;;;;5084788;28;20186;-62
2021/05/29 08:51:13;;;;;;;7.85;7.03;;;19.60;99.90;;;;;;5085269;28;20231;-61
2021/05/29 08:53:48;;;;;;;10.88;8.13;;;19.70;99.90;;;;;;5085044;28;20164;-62
2021/05/29 08:56:16;;;;;;;7.10;6.38;;;19.70;99.90;;;;;;5082328;28;20224;-61
2021/05/29 08:58:42;;;;;;;9.13;6.65;;;19.80;99.90;;;;;;5084747;28;20168;-61
2021/05/29 09:01:11;;;;;;;7.07;5.35;;;19.90;99.90;;;;;;5084337;28;20207;-61
2021/05/29 09:03:52;;;;;;;7.20;6.50;;;19.90;99.90;;;;;;5084682;28;20183;-61
2021/05/29 09:06:38;;;;;;;6.97;5.60;;;20.00;99.90;;;;;;5083121;28;20186;-62
2021/05/29 09:09:08;;;;;;;9.57;5.72;;;20.20;99.90;;;;;;5088085;28;20191;-62
2021/05/29 09:12:02;;;;;;;7.13;6.30;;;20.30;99.90;;;;;;5088381;28;20164;-61
2021/05/29 09:14:41;;;;;;;7.10;6.28;;;20.30;99.90;;;;;;5085681;28;20192;-61
2021/05/29 09:17:24;;;;;;;6.78;6.10;;;20.40;99.90;;;;;;5086387;28;20175;-62
2021/05/29 09:19:58;;;;;;;8.63;5.75;;;20.30;99.90;;;;;;5088072;28;20429;-61
2021/05/29 09:22:30;;;;;;;7.07;6.40;;;20.30;99.90;;;;;;5087901;28;20176;-61
2021/05/29 09:25:13;;;;;;;7.32;6.68;;;20.40;99.90;;;;;;5085628;28;20175;-62
2021/05/29 09:27:51;;;;;;;7.22;6.35;;;20.40;99.90;;;;;;5087681;28;20230;-62
2021/05/29 09:30:34;;;;;;;7.38;5.95;;;20.70;99.90;;;;;;5087809;28;20527;-62
2021/05/29 09:33:35;;;;;;;6.30;5.80;;;20.80;99.90;;;;;;5087495;28;20171;-62
2021/05/29 09:36:11;;;;;;;5.90;5.22;;;20.90;99.90;;;;;;5081264;28;20736;-62
2021/05/29 09:38:36;;;;;;;8.63;5.07;;;21.00;99.90;;;;;;5087576;28;20194;-62
2021/05/29 09:41:03;;;;;;;8.38;4.93;;;21.10;99.90;;;;;;5087237;28;20200;-62
2021/05/29 09:43:29;;;;;;;6.70;5.85;;;20.90;99.90;;;;;;5087609;28;20161;-62
2021/05/29 09:46:03;;;;;;;7.68;4.78;;;20.90;99.90;;;;;;5084681;28;20248;-62
2021/05/29 09:48:29;;;;;;;8.75;5.45;;;20.80;99.90;;;;;;5087702;28;20200;-62
2021/05/29 09:51:12;;;;;;;5.65;4.32;;;21.00;99.90;;;;;;5087834;28;20164;-62
2021/05/29 09:53:43;;;;;;;5.82;4.55;;;21.30;99.90;;;;;;5086240;28;20625;-62
2021/05/29 09:56:34;;;;;;;4.43;4.03;;;21.40;99.90;;;;;;5084992;28;20172;-62
2021/05/29 09:59:08;;;;;;;6.20;4.78;;;21.60;99.90;;;;;;5087267;28;20183;-63
2021/05/29 10:01:53;;;;;;;4.85;4.00;;;21.80;99.90;;;;;;5087141;28;20164;-62
2021/05/29 10:04:22;;;;;;;6.50;3.78;;;21.90;99.90;;;;;;5085311;28;20187;-62
2021/05/29 10:06:56;;;;;;;7.50;3.42;;;22.10;99.90;;;;;;5087055;28;20648;-62
2021/05/29 10:09:22;;;;;;;5.00;3.17;;;22.30;99.90;;;;;;5086685;28;20171;-62
2021/05/29 10:11:48;;;;;;;8.10;3.17;;;21.80;99.90;;;;;;5086796;28;20738;-62
2021/05/29 10:14:14;;;;;;;7.43;4.07;;;21.90;99.90;;;;;;5085493;28;20164;-62
2021/05/29 10:16:40;;;;;;;9.98;3.47;;;21.80;99.90;;;;;;5085566;28;20557;-62
2021/05/29 10:19:08;;;;;;;3.80;3.05;;;22.10;99.90;;;;;;5086674;28;20167;-62
2021/05/29 10:21:36;;;;;;;5.25;3.35;;;22.50;99.90;;;;;;5087179;28;20163;-62
2021/05/29 10:24:03;;;;;;;4.82;3.92;;;22.90;99.90;;;;;;5086830;28;20164;-60
2021/05/29 10:26:30;;;;;;;3.33;3.00;;;23.10;99.90;;;;;;5084965;28;20152;-59
2021/05/29 10:28:56;;;;;;;3.75;2.53;;;22.60;99.90;;;;;;5086886;28;20164;-60
2021/05/29 10:31:23;;;;;;;3.70;2.67;;;22.20;99.90;;;;;;5086489;28;20178;-59
2021/05/29 10:33:52;;;;;;;6.45;3.22;;;22.30;99.90;;;;;;5087066;28;20168;-59
2021/05/29 10:36:44;;;;;;;6.13;3.10;;;22.60;99.90;;;;;;5083930;28;20207;-60
2021/05/29 10:39:12;;;;;;;4.05;3.08;;;22.80;99.90;;;;;;5086140;28;20210;-60
2021/05/29 10:42:02;;;;;;;3.70;2.88;;;22.50;99.90;;;;;;5085430;28;20164;-60
2021/05/29 10:44:37;;;;;;;7.13;2.30;;;22.90;99.90;;;;;;5084182;28;20405;-60
2021/05/29 10:47:15;;;;;;;3.42;2.97;;;23.00;99.90;;;;;;5086102;28;20265;-60
2021/05/29 10:49:50;;;;;;;4.53;2.45;;;23.30;99.90;;;;;;5086700;28;20174;-60
2021/05/29 10:52:42;;;;;;;4.55;2.15;;;23.40;99.90;;;;;;5086423;28;20178;-60
2021/05/29 10:55:14;;;;;;;3.40;1.73;;;23.50;99.90;;;;;;5081204;28;20183;-62
2021/05/29 10:58:00;;;;;;;4.20;1.80;;;23.60;99.90;;;;;;5086150;28;20184;-60
2021/05/29 11:00:35;;;;;;;3.10;2.15;;;23.70;99.90;;;;;;5086455;28;20188;-61
2021/05/29 11:03:16;;;;;;;3.95;2.28;;;23.60;99.90;;;;;;5085826;28;20182;-60
2021/05/29 11:05:54;;;;;;;2.58;1.88;;;23.10;99.90;;;;;;5083898;28;20160;-62
2021/05/29 11:08:52;;;;;;;2.55;1.83;;;23.10;99.90;;;;;;5085364;28;20215;-62
2021/05/29 11:11:36;;;;;;;2.88;1.88;;;23.40;99.90;;;;;;5085862;28;20164;-62
2021/05/29 11:14:07;;;;;;;2.97;1.85;;;23.60;99.90;;;;;;5084277;28;20166;-63
2021/05/29 11:16:52;;;;;;;4.22;1.52;;;23.20;99.90;;;;;;5083834;28;20195;-62
2021/05/29 11:19:21;;;;;;;2.13;1.67;;;22.60;99.90;;;;;;5085227;28;20275;-62
2021/05/29 11:22:08;;;;;;;2.60;1.52;;;23.00;99.90;;;;;;5085377;28;20171;-62
2021/05/29 11:24:49;;;;;;;2.40;2.20;;;23.20;99.90;;;;;;5083078;28;20391;-63
2021/05/29 11:27:20;;;;;;;3.85;2.10;;;23.40;99.90;;;;;;5085487;28;20186;-62
2021/05/29 11:29:49;;;;;;;3.17;2.50;;;23.00;99.90;;;;;;5085482;28;20172;-62
2021/05/29 11:32:15;;;;;;;4.40;2.20;;;23.00;99.90;;;;;;5085385;28;20171;-63
2021/05/29 11:34:42;;;;;;;2.95;2.33;;;23.10;99.90;;;;;;5082928;28;20212;-62
2021/05/29 11:37:15;;;;;;;6.50;2.00;;;23.70;99.90;;;;;;5085318;28;20180;-62
2021/05/29 11:39:52;;;;;;;3.72;2.38;;;23.60;99.90;;;;;;5085858;28;20283;-62
2021/05/29 11:42:18;;;;;;;3.42;2.17;;;23.90;99.90;;;;;;5085688;28;20572;-62
2021/05/29 11:44:44;;;;;;;3.50;1.83;;;24.40;99.90;;;;;;5083206;28;20152;-60
2021/05/29 11:47:16;;;;;;;3.33;1.50;;;24.70;99.90;;;;;;5084818;28;20179;-60
2021/05/29 11:49:42;;;;;;;2.85;2.17;;;24.80;99.90;;;;;;5083987;28;20170;-60
2021/05/29 11:52:09;;;;;;;4.30;1.70;;;24.80;99.90;;;;;;5085224;28;20164;-60
2021/05/29 11:54:39;;;;;;;2.33;1.58;;;24.90;99.90;;;;;;5081527;28;20183;-60
2021/05/29 11:57:05;;;;;;;3.63;2.13;;;25.30;99.90;;;;;;5085229;28;20176;-60
2021/05/29 11:59:34;;;;;;;4.72;2.05;;;25.70;99.90;;;;;;5083726;28;20187;-60
2021/05/29 12:02:00;;;;;;;5.18;3.10;;;25.30;99.90;;;;;;5085325;28;20168;-62
2021/05/29 12:04:29;;;;;;;7.35;3.13;;;25.40;99.90;;;;;;5083024;28;20385;-63
2021/05/29 12:06:59;;;;;;;3.63;3.00;;;25.50;99.90;;;;;;5085392;28;20163;-63
2021/05/29 12:09:29;;;;;;;5.35;2.92;;;24.60;99.90;;;;;;5085153;28;20240;-62
2021/05/29 12:12:06;;;;;;;5.05;2.65;;;23.70;99.90;;;;;;5085330;28;20164;-63
2021/05/29 12:14:34;;;;;;;2.63;2.38;;;23.20;99.90;;;;;;5082890;28;20191;-63
2021/05/29 12:17:12;;;;;;;7.00;2.83;;;23.30;99.90;;;;;;5085127;28;20156;-62
2021/05/29 12:19:42;;;;;;;4.68;3.50;;;24.00;99.90;;;;;;5085110;28;20259;-63
2021/05/29 12:22:20;;;;;;;5.85;3.30;;;24.70;99.90;;;;;;5085269;28;20205;-62
2021/05/29 12:24:59;;;;;;;7.97;3.15;;;25.10;99.90;;;;;;5082859;28;20171;-63
2021/05/29 12:27:27;;;;;;;4.15;3.15;;;25.00;99.90;;;;;;5085148;28;20242;-62
2021/05/29 12:30:04;;;;;;;7.75;2.95;;;24.70;99.90;;;;;;5085250;28;20156;-60
2021/05/29 12:32:39;;;;;;;3.55;2.40;;;24.50;99.90;;;;;;5083646;28;20266;-61
2021/05/29 12:35:10;;;;;;;6.65;2.53;;;24.20;99.90;;;;;;5082306;28;20207;-62
2021/05/29 12:37:37;;;;;;;4.72;2.63;;;23.90;99.90;;;;;;5085020;28;20225;-61
2021/05/29 12:40:14;;;;;;;4.72;2.90;;;24.30;99.90;;;;;;5085389;28;20658;-62
2021/05/29 12:42:47;;;;;;;4.45;2.80;;;24.30;99.90;;;;;;5088892;28;20682;-61
2021/05/29 12:45:27;;;;;;;3.28;2.30;;;24.10;99.90;;;;;;5085810;28;20169;-61
2021/05/29 12:48:06;;;;;;;4.20;2.80;;;23.90;99.90;;;;;;5088243;28;20187;-61
2021/05/29 12:50:38;;;;;;;3.20;2.88;;;24.50;99.90;;;;;;5088697;28;20164;-61
2021/05/29 12:53:14;;;;;;;7.53;2.70;;;24.40;99.90;;;;;;5088573;28;20160;-62
2021/05/29 12:55:42;;;;;;;3.67;1.85;;;24.50;99.90;;;;;;5086238;28;20190;-62
2021/05/29 12:58:18;;;;;;;2.60;2.40;;;25.20;99.90;;;;;;5088243;28;20168;-61